Terminal Aerodrome Forecast
Issued by NWS

Home | Current Version | Previous Version | Text Only | Print | Product List | Glossary On
Versions: 1 2 3 4 5 6 7 8 9 10 11 12 13 14 15 16 17 18 19 20 21 22
000
FTUS41 KBGM 311800 AAA
TAFELM
TAF AMD
KELM 311815Z 3118/0118 23008KT P6SM BKN050
     FM010000 00000KT P6SM SCT250
      TEMPO 0108/0112 4SM BR
     FM011500 23004KT P6SM FEW050 SCT250=

USA.gov is the U.S. government's official web portal to all federal, state and local government web resources and services.